createdAt,value
2023-03-30T00:00:49.313Z,12.30
2023-03-30T00:03:19.469Z,12.30
2023-03-30T00:05:46.666Z,12.20
2023-03-30T00:08:18.680Z,12.20
2023-03-30T00:10:46.507Z,12.20
2023-03-30T00:13:13.797Z,12.20
2023-03-30T00:15:41.660Z,12.20
2023-03-30T00:18:09.216Z,12.10
2023-03-30T00:20:37.630Z,12.10
2023-03-30T00:23:04.934Z,12.10
2023-03-30T00:25:31.942Z,12.10
2023-03-30T00:27:58.818Z,12.10
2023-03-30T00:30:25.984Z,12.10
2023-03-30T00:32:53.873Z,12.00
2023-03-30T00:35:21.099Z,12.00
2023-03-30T00:37:49.781Z,11.90
2023-03-30T00:40:20.525Z,11.90
2023-03-30T00:42:49.114Z,11.90
2023-03-30T00:45:27.875Z,11.90
2023-03-30T00:48:00.111Z,11.90
2023-03-30T00:50:36.934Z,11.90
2023-03-30T00:53:10.203Z,11.80
2023-03-30T00:55:41.396Z,11.80
2023-03-30T00:58:11.743Z,11.80
2023-03-30T01:00:40.010Z,11.80
2023-03-30T01:03:35.465Z,11.70
2023-03-30T01:06:07.531Z,11.70
2023-03-30T01:08:37.212Z,11.70
2023-03-30T01:11:06.802Z,11.70
2023-03-30T01:13:36.760Z,11.60
2023-03-30T01:16:35.565Z,11.60
2023-03-30T01:19:03.158Z,11.60
2023-03-30T01:21:48.688Z,11.60
2023-03-30T01:24:34.785Z,11.50
2023-03-30T01:27:46.475Z,11.50
2023-03-30T01:30:43.754Z,11.50
2023-03-30T01:33:41.232Z,11.50
2023-03-30T01:36:35.365Z,11.50
2023-03-30T01:39:23.597Z,11.50
2023-03-30T01:41:56.364Z,11.50
2023-03-30T01:44:34.434Z,11.50
2023-03-30T01:47:12.421Z,11.50
2023-03-30T01:49:49.276Z,11.40
2023-03-30T01:52:23.527Z,11.40
2023-03-30T01:55:08.978Z,11.40
2023-03-30T01:57:51.505Z,11.50
2023-03-30T02:00:22.617Z,11.40
2023-03-30T02:02:55.829Z,11.40
2023-03-30T02:05:24.615Z,11.40
2023-03-30T02:08:01.607Z,11.40
2023-03-30T02:10:32.827Z,11.30
2023-03-30T02:13:01.030Z,11.30
2023-03-30T02:15:36.895Z,11.30
2023-03-30T02:18:05.017Z,11.30
2023-03-30T02:20:33.232Z,11.30
2023-03-30T02:23:01.539Z,11.30
2023-03-30T02:25:28.658Z,11.30
2023-03-30T02:27:56.286Z,11.30
2023-03-30T02:30:23.529Z,11.30
2023-03-30T02:32:54.935Z,11.30
2023-03-30T02:35:37.170Z,11.30
2023-03-30T02:38:40.768Z,11.30
2023-03-30T02:41:23.704Z,11.30
2023-03-30T02:44:26.110Z,11.30
2023-03-30T02:47:07.973Z,11.30
2023-03-30T02:49:57.115Z,11.20
2023-03-30T02:52:54.289Z,11.20
2023-03-30T02:55:45.985Z,11.20
2023-03-30T02:58:52.132Z,11.10
2023-03-30T03:01:29.177Z,11.10
2023-03-30T03:04:04.210Z,11.00
2023-03-30T03:06:39.999Z,11.00
2023-03-30T03:09:08.268Z,11.00
2023-03-30T03:11:36.153Z,11.00
2023-03-30T03:14:04.096Z,11.00
2023-03-30T03:16:33.433Z,11.00
2023-03-30T03:19:18.925Z,10.90
2023-03-30T03:21:49.275Z,10.90
2023-03-30T03:24:18.892Z,10.90
2023-03-30T03:27:12.016Z,10.90
2023-03-30T03:29:58.873Z,10.90
2023-03-30T03:32:26.140Z,10.90
2023-03-30T03:34:54.391Z,10.90
2023-03-30T03:37:22.096Z,10.90
2023-03-30T03:39:48.978Z,10.90
2023-03-30T03:42:16.623Z,10.90
2023-03-30T03:44:58.620Z,10.90
2023-03-30T03:47:25.781Z,10.80
2023-03-30T03:49:52.669Z,10.90
2023-03-30T03:52:19.831Z,10.90
2023-03-30T03:54:46.802Z,10.90
2023-03-30T03:57:13.933Z,10.90
2023-03-30T03:59:41.033Z,10.90
2023-03-30T04:02:08.093Z,10.90
2023-03-30T04:04:35.037Z,10.90
2023-03-30T04:07:02.355Z,11.00
2023-03-30T04:09:29.487Z,10.90
2023-03-30T04:12:02.191Z,10.90
2023-03-30T04:14:56.293Z,10.90
2023-03-30T04:17:28.940Z,10.90
2023-03-30T04:20:17.178Z,11.00
2023-03-30T04:23:02.798Z,11.00
2023-03-30T04:25:32.458Z,11.00
2023-03-30T04:28:31.762Z,11.00
2023-03-30T04:31:18.471Z,10.90
2023-03-30T04:34:04.900Z,10.90
2023-03-30T04:36:55.167Z,10.90
2023-03-30T04:39:22.108Z,10.90
2023-03-30T04:42:06.316Z,10.90
2023-03-30T04:44:47.687Z,10.90
2023-03-30T04:47:29.115Z,10.90
2023-03-30T04:50:13.628Z,10.90
2023-03-30T04:52:59.391Z,10.90
2023-03-30T04:55:58.790Z,10.90
2023-03-30T04:59:04.629Z,10.90
2023-03-30T05:01:45.809Z,10.90
2023-03-30T05:04:39.670Z,10.90
2023-03-30T05:07:32.732Z,10.90
2023-03-30T05:10:17.955Z,10.90
2023-03-30T05:12:57.643Z,10.90
2023-03-30T05:15:59.863Z,10.90
2023-03-30T05:18:26.775Z,10.90
2023-03-30T05:20:58.431Z,10.90
2023-03-30T05:23:26.307Z,11.00
2023-03-30T05:26:11.360Z,11.00
2023-03-30T05:28:52.491Z,11.00
2023-03-30T05:31:19.818Z,11.00
2023-03-30T05:34:16.144Z,11.00
2023-03-30T05:36:53.307Z,11.00
2023-03-30T05:39:35.460Z,11.10
2023-03-30T05:42:02.504Z,11.10
2023-03-30T05:45:01.447Z,11.20
2023-03-30T05:47:47.096Z,11.20
2023-03-30T05:50:34.463Z,11.20
2023-03-30T05:53:06.709Z,11.20
2023-03-30T05:56:02.999Z,11.30
2023-03-30T05:58:38.844Z,11.30
2023-03-30T06:01:26.340Z,11.40
2023-03-30T06:03:53.933Z,11.40
2023-03-30T06:06:21.556Z,11.50
2023-03-30T06:08:52.204Z,11.50
2023-03-30T06:11:23.082Z,11.60
2023-03-30T06:14:05.051Z,11.70
2023-03-30T06:16:32.548Z,11.70
2023-03-30T06:19:02.290Z,11.80
2023-03-30T06:21:29.909Z,11.90
2023-03-30T06:24:20.901Z,12.00
2023-03-30T06:26:49.511Z,12.20
2023-03-30T06:29:16.892Z,12.20
2023-03-30T06:31:43.881Z,12.30
2023-03-30T06:34:37.297Z,12.40
2023-03-30T06:37:07.326Z,12.40
2023-03-30T06:39:37.532Z,12.50
2023-03-30T06:42:06.460Z,12.50
2023-03-30T06:44:59.873Z,12.60
2023-03-30T06:47:27.235Z,12.70
2023-03-30T06:49:55.165Z,12.80
2023-03-30T06:52:38.220Z,12.90
2023-03-30T06:55:06.198Z,13.00
2023-03-30T06:57:33.492Z,13.20
2023-03-30T07:00:06.642Z,13.20
2023-03-30T07:02:40.645Z,13.30
2023-03-30T07:05:24.783Z,13.30
2023-03-30T07:08:07.991Z,13.40
2023-03-30T07:10:37.713Z,13.50
2023-03-30T07:13:07.447Z,13.70
2023-03-30T07:15:35.901Z,13.80
2023-03-30T07:18:03.354Z,13.90
2023-03-30T07:20:30.493Z,14.00
2023-03-30T07:23:17.993Z,14.10
2023-03-30T07:25:47.079Z,14.30
2023-03-30T07:28:20.526Z,14.30
2023-03-30T07:30:47.649Z,14.40
2023-03-30T07:33:15.872Z,14.50
2023-03-30T07:35:46.604Z,14.60
2023-03-30T07:38:16.744Z,14.70
2023-03-30T07:40:50.298Z,14.80
2023-03-30T07:43:18.340Z,14.90
2023-03-30T07:45:45.424Z,15.10
2023-03-30T07:48:18.627Z,15.10
2023-03-30T07:50:45.727Z,15.30
2023-03-30T07:53:13.033Z,15.40
2023-03-30T07:55:41.380Z,15.40
2023-03-30T07:58:17.047Z,15.50
2023-03-30T08:00:44.886Z,15.60
2023-03-30T08:03:50.850Z,15.70
2023-03-30T08:06:18.247Z,15.80
2023-03-30T08:08:48.286Z,16.00
2023-03-30T08:11:16.415Z,16.20
2023-03-30T08:13:44.549Z,16.40
2023-03-30T08:16:12.021Z,16.60
2023-03-30T08:18:41.407Z,16.80
2023-03-30T08:21:08.898Z,16.90
2023-03-30T08:23:36.064Z,17.00
2023-03-30T08:26:03.255Z,17.10
2023-03-30T08:28:30.922Z,17.30
2023-03-30T08:31:05.378Z,17.50
2023-03-30T08:33:32.691Z,17.70
2023-03-30T08:35:59.580Z,17.80
2023-03-30T08:38:26.658Z,18.00
2023-03-30T08:40:53.726Z,18.00
2023-03-30T08:43:33.348Z,18.10
2023-03-30T08:46:02.613Z,18.10
2023-03-30T08:48:35.598Z,18.10
2023-03-30T08:51:28.063Z,18.00
2023-03-30T08:54:07.132Z,18.00
2023-03-30T08:57:18.953Z,18.00
2023-03-30T09:00:11.620Z,18.00
2023-03-30T09:02:46.536Z,17.90
2023-03-30T09:05:30.424Z,17.90
2023-03-30T09:08:21.221Z,17.90
2023-03-30T09:11:01.356Z,18.00
2023-03-30T09:13:33.732Z,18.00
2023-03-30T09:16:32.702Z,18.00
2023-03-30T09:19:01.912Z,18.10
2023-03-30T09:21:31.572Z,18.40
2023-03-30T09:24:10.822Z,18.60
2023-03-30T09:27:02.302Z,18.80
2023-03-30T09:29:35.153Z,18.90
2023-03-30T09:32:17.709Z,18.90
2023-03-30T09:34:56.866Z,19.00
2023-03-30T09:37:25.104Z,19.10
2023-03-30T09:39:52.077Z,19.10
2023-03-30T09:42:34.222Z,19.10
2023-03-30T09:45:25.362Z,19.10
2023-03-30T09:47:52.782Z,19.20
2023-03-30T09:50:28.624Z,19.30
2023-03-30T09:52:57.835Z,19.40
2023-03-30T09:55:28.650Z,19.60
2023-03-30T09:58:10.112Z,19.60
2023-03-30T10:00:37.980Z,19.80
2023-03-30T10:03:07.510Z,19.80
2023-03-30T10:05:36.526Z,20.00
2023-03-30T10:08:07.242Z,20.10
2023-03-30T10:10:41.050Z,20.20
2023-03-30T10:13:16.328Z,20.30
2023-03-30T10:15:47.130Z,20.30
2023-03-30T10:18:28.750Z,20.30
2023-03-30T10:21:06.892Z,20.40
2023-03-30T10:23:44.987Z,20.40
2023-03-30T10:26:20.692Z,20.40
2023-03-30T10:29:02.937Z,20.30
2023-03-30T10:31:31.496Z,20.20
2023-03-30T10:34:01.205Z,20.10
2023-03-30T10:36:38.449Z,20.10
2023-03-30T10:39:28.552Z,20.10
2023-03-30T10:41:59.690Z,20.30
2023-03-30T10:44:42.994Z,20.50
2023-03-30T10:47:16.300Z,20.70
2023-03-30T10:49:54.521Z,20.90
2023-03-30T10:52:35.725Z,20.90
2023-03-30T10:55:22.930Z,21.00
2023-03-30T10:58:15.368Z,21.00
2023-03-30T11:00:53.292Z,20.90
2023-03-30T11:03:29.451Z,20.80
2023-03-30T11:06:19.431Z,20.80
2023-03-30T11:08:49.594Z,20.80
2023-03-30T11:11:23.791Z,20.80
2023-03-30T11:13:55.359Z,20.80
2023-03-30T11:16:30.959Z,20.80
2023-03-30T11:19:04.328Z,20.80
2023-03-30T11:22:18.817Z,20.80
2023-03-30T11:24:50.939Z,20.80
2023-03-30T11:27:30.815Z,21.00
2023-03-30T11:30:09.875Z,21.10
2023-03-30T11:32:47.557Z,21.20
2023-03-30T11:35:39.757Z,21.30
2023-03-30T11:38:32.982Z,21.30
2023-03-30T11:41:19.834Z,21.50
2023-03-30T11:43:46.983Z,21.60
2023-03-30T11:46:20.388Z,21.70
2023-03-30T11:49:14.450Z,21.80
2023-03-30T11:51:47.290Z,21.90
2023-03-30T11:54:52.579Z,22.10
2023-03-30T11:57:34.382Z,22.20
2023-03-30T12:00:19.303Z,22.40
2023-03-30T12:02:46.753Z,22.50
2023-03-30T12:05:27.499Z,22.60
2023-03-30T12:08:21.048Z,22.60
2023-03-30T12:11:19.583Z,22.40
2023-03-30T12:13:51.746Z,22.40
2023-03-30T12:16:44.709Z,22.30
2023-03-30T12:19:25.359Z,22.20
2023-03-30T12:21:55.052Z,22.10
2023-03-30T12:24:42.182Z,22.00
2023-03-30T12:27:11.869Z,22.00
2023-03-30T12:32:29.386Z,22.00
2023-03-30T12:34:58.173Z,21.90
2023-03-30T12:37:35.368Z,22.00
2023-03-30T12:40:10.557Z,22.10
2023-03-30T12:42:46.973Z,22.10
2023-03-30T12:45:28.861Z,22.10
2023-03-30T12:48:24.869Z,22.10
2023-03-30T12:50:57.536Z,22.20
2023-03-30T12:53:45.801Z,22.10
2023-03-30T12:56:20.595Z,22.10
2023-03-30T12:59:12.091Z,22.00
2023-03-30T13:01:47.900Z,21.80
2023-03-30T13:04:24.008Z,21.60
2023-03-30T13:06:56.511Z,21.50
2023-03-30T13:09:27.266Z,21.40
2023-03-30T13:11:54.172Z,21.30
2023-03-30T13:14:27.000Z,21.20
2023-03-30T13:16:53.935Z,21.20
2023-03-30T13:19:32.025Z,21.20
2023-03-30T13:22:19.915Z,21.30
2023-03-30T13:24:59.575Z,21.50
2023-03-30T13:27:30.828Z,21.70
2023-03-30T13:30:02.569Z,21.80
2023-03-30T13:32:36.264Z,21.80
2023-03-30T13:35:22.435Z,21.80
2023-03-30T13:38:04.254Z,21.80
2023-03-30T13:40:54.619Z,21.90
2023-03-30T13:44:04.815Z,21.90
2023-03-30T13:46:53.877Z,21.90
2023-03-30T13:49:29.440Z,21.90
2023-03-30T13:52:19.888Z,21.90
2023-03-30T13:54:47.491Z,21.90
2023-03-30T13:57:25.391Z,21.80
2023-03-30T13:59:59.229Z,21.80
2023-03-30T14:02:29.540Z,21.80
2023-03-30T14:05:20.455Z,21.90
2023-03-30T14:07:49.047Z,21.90
2023-03-30T14:10:21.490Z,21.90
2023-03-30T14:12:53.288Z,21.90
2023-03-30T14:15:28.245Z,21.90
2023-03-30T14:17:58.733Z,21.90
2023-03-30T14:20:36.170Z,21.80
2023-03-30T14:23:03.936Z,21.80
2023-03-30T14:25:39.129Z,21.80
2023-03-30T14:28:21.683Z,21.70
2023-03-30T14:31:03.060Z,21.70
2023-03-30T14:33:30.623Z,21.60
2023-03-30T14:35:59.988Z,21.50
2023-03-30T14:38:38.420Z,21.50
2023-03-30T14:41:27.688Z,21.40
2023-03-30T14:44:06.581Z,21.40
2023-03-30T14:46:46.990Z,21.40
2023-03-30T14:49:28.555Z,21.40
2023-03-30T14:52:09.075Z,21.40
2023-03-30T14:54:37.390Z,21.40
2023-03-30T14:57:07.757Z,21.30
2023-03-30T14:59:42.916Z,21.30
2023-03-30T15:02:22.393Z,21.20
2023-03-30T15:04:49.951Z,21.20
2023-03-30T15:07:17.994Z,21.20
2023-03-30T15:09:46.752Z,21.10
2023-03-30T15:12:48.582Z,21.00
2023-03-30T15:15:20.554Z,20.90
2023-03-30T15:17:50.468Z,20.90
2023-03-30T15:20:18.725Z,20.90
2023-03-30T15:22:48.644Z,20.90
2023-03-30T15:25:34.101Z,20.90
2023-03-30T15:28:19.138Z,20.90
2023-03-30T15:30:50.735Z,21.00
2023-03-30T15:33:39.645Z,21.00
2023-03-30T15:36:12.019Z,21.00
2023-03-30T15:39:18.946Z,21.00
2023-03-30T15:42:06.180Z,21.00
2023-03-30T15:44:38.375Z,21.00
2023-03-30T15:47:14.631Z,20.90
2023-03-30T15:49:46.069Z,20.90
2023-03-30T15:52:34.498Z,20.80
2023-03-30T15:55:11.568Z,20.70
2023-03-30T15:57:44.109Z,20.70
2023-03-30T16:00:20.780Z,20.60
2023-03-30T16:02:50.613Z,20.60
2023-03-30T16:05:20.899Z,20.50
2023-03-30T16:07:48.835Z,20.50
2023-03-30T16:10:19.570Z,20.40
2023-03-30T16:12:48.464Z,20.40
2023-03-30T16:15:17.733Z,20.30
2023-03-30T16:17:44.897Z,20.30
2023-03-30T16:20:14.884Z,20.20
2023-03-30T16:22:41.855Z,20.20
2023-03-30T16:25:09.485Z,20.10
2023-03-30T16:27:37.009Z,20.10
2023-03-30T16:30:18.835Z,20.00
2023-03-30T16:32:46.237Z,19.90
2023-03-30T16:35:13.699Z,19.80
2023-03-30T16:37:41.977Z,19.80
2023-03-30T16:40:27.727Z,19.70
2023-03-30T16:42:54.724Z,19.60
2023-03-30T16:45:21.692Z,19.50
2023-03-30T16:47:48.688Z,19.40
2023-03-30T16:50:39.582Z,19.30
2023-03-30T16:53:07.651Z,19.30
2023-03-30T16:55:35.298Z,19.20
2023-03-30T16:58:03.036Z,19.20
2023-03-30T17:00:33.602Z,19.10
2023-03-30T17:03:00.876Z,19.10
2023-03-30T17:05:28.021Z,19.00
2023-03-30T17:07:55.327Z,19.00
2023-03-30T17:10:26.342Z,18.90
2023-03-30T17:12:54.374Z,18.80
2023-03-30T17:15:22.362Z,18.80
2023-03-30T17:17:50.307Z,18.70
2023-03-30T17:20:37.342Z,18.70
2023-03-30T17:23:05.246Z,18.60
2023-03-30T17:25:32.423Z,18.60
2023-03-30T17:27:59.754Z,18.50
2023-03-30T17:30:34.408Z,18.50
2023-03-30T17:33:01.659Z,18.40
2023-03-30T17:35:28.627Z,18.30
2023-03-30T17:37:55.765Z,18.30
2023-03-30T17:40:28.173Z,18.20
2023-03-30T17:42:55.948Z,18.10
2023-03-30T17:45:25.598Z,18.10
2023-03-30T17:47:53.302Z,18.00
2023-03-30T17:50:27.062Z,17.90
2023-03-30T17:52:55.994Z,17.80
2023-03-30T17:55:26.114Z,17.80
2023-03-30T17:57:53.318Z,17.70
2023-03-30T18:00:24.898Z,17.70
2023-03-30T18:02:52.764Z,17.60
2023-03-30T18:05:21.237Z,17.60
2023-03-30T18:07:48.475Z,17.50
2023-03-30T18:10:51.839Z,17.50
2023-03-30T18:13:20.112Z,17.40
2023-03-30T18:15:49.663Z,17.40
2023-03-30T18:18:22.790Z,17.30
2023-03-30T18:20:52.856Z,17.20
2023-03-30T18:23:20.335Z,17.20
2023-03-30T18:25:47.859Z,17.10
2023-03-30T18:28:26.009Z,17.00
2023-03-30T18:30:55.409Z,16.90
2023-03-30T18:33:22.662Z,16.80
2023-03-30T18:35:51.139Z,16.70
2023-03-30T18:38:20.760Z,16.70
2023-03-30T18:40:49.631Z,16.60
2023-03-30T18:43:17.214Z,16.60
2023-03-30T18:45:49.532Z,16.50
2023-03-30T18:48:19.407Z,16.40
2023-03-30T18:50:51.567Z,16.30
2023-03-30T18:53:21.599Z,16.20
2023-03-30T18:55:51.501Z,16.10
2023-03-30T18:58:21.447Z,16.10
2023-03-30T19:00:49.991Z,16.00
2023-03-30T19:03:18.544Z,15.90
2023-03-30T19:05:46.445Z,15.80
2023-03-30T19:08:16.374Z,15.70
2023-03-30T19:10:45.254Z,15.60
2023-03-30T19:13:13.454Z,15.50
2023-03-30T19:15:40.745Z,15.50
2023-03-30T19:18:08.742Z,15.40
2023-03-30T19:20:39.947Z,15.30
2023-03-30T19:23:08.156Z,15.30
2023-03-30T19:25:35.533Z,15.20
2023-03-30T19:28:04.493Z,15.10
2023-03-30T19:30:34.793Z,15.10
2023-03-30T19:33:05.930Z,15.00
2023-03-30T19:35:33.198Z,15.00
2023-03-30T19:38:00.912Z,15.00
2023-03-30T19:40:28.333Z,14.90
2023-03-30T19:42:55.402Z,14.90
2023-03-30T19:45:23.621Z,14.80
2023-03-30T19:47:51.371Z,14.80
2023-03-30T19:50:20.571Z,14.70
2023-03-30T19:52:50.077Z,14.70
2023-03-30T19:55:20.512Z,14.60
2023-03-30T19:57:47.787Z,14.60
2023-03-30T20:00:17.125Z,14.50
2023-03-30T20:02:50.752Z,14.50
2023-03-30T20:05:20.813Z,14.50
2023-03-30T20:07:48.500Z,14.40
2023-03-30T20:10:19.110Z,14.40
2023-03-30T20:12:46.894Z,14.40
2023-03-30T20:15:14.428Z,14.40
2023-03-30T20:17:42.394Z,14.40
2023-03-30T20:20:12.627Z,14.40
2023-03-30T20:22:42.687Z,14.30
2023-03-30T20:25:12.556Z,14.30
2023-03-30T20:27:40.290Z,14.30
2023-03-30T20:30:08.298Z,14.30
2023-03-30T20:32:35.647Z,14.20
2023-03-30T20:35:03.911Z,14.20
2023-03-30T20:37:30.861Z,14.20
2023-03-30T20:40:03.737Z,14.20
2023-03-30T20:42:31.892Z,14.20
2023-03-30T20:44:59.645Z,14.20
2023-03-30T20:47:31.071Z,14.10
2023-03-30T20:49:59.183Z,14.10
2023-03-30T20:52:27.146Z,14.10
2023-03-30T20:54:54.521Z,14.10
2023-03-30T20:57:21.784Z,14.10
2023-03-30T20:59:49.716Z,14.10
2023-03-30T21:02:17.445Z,14.10
2023-03-30T21:04:45.233Z,14.10
2023-03-30T21:07:12.689Z,14.10
2023-03-30T21:09:40.201Z,14.10
2023-03-30T21:12:08.578Z,14.10
2023-03-30T21:14:35.911Z,14.00
2023-03-30T21:17:02.995Z,14.00
2023-03-30T21:19:30.013Z,14.00
2023-03-30T21:21:57.068Z,14.00
2023-03-30T21:24:24.127Z,14.00
2023-03-30T21:26:51.262Z,14.00
2023-03-30T21:29:18.469Z,14.00
2023-03-30T21:31:45.569Z,14.00
2023-03-30T21:34:13.189Z,14.00
2023-03-30T21:36:40.226Z,14.00
2023-03-30T21:39:07.370Z,14.00
2023-03-30T21:41:34.286Z,14.00
2023-03-30T21:44:01.416Z,14.00
2023-03-30T21:46:28.484Z,14.00
2023-03-30T21:48:55.526Z,13.90
2023-03-30T21:51:27.795Z,13.90
2023-03-30T21:53:56.502Z,13.90
2023-03-30T21:56:26.016Z,13.80
2023-03-30T21:58:53.250Z,13.80
2023-03-30T22:01:21.827Z,13.80
2023-03-30T22:03:48.871Z,13.70
2023-03-30T22:06:17.355Z,13.70
2023-03-30T22:08:45.698Z,13.70
2023-03-30T22:11:15.966Z,13.60
2023-03-30T22:13:44.020Z,13.50
2023-03-30T22:16:22.649Z,13.50
2023-03-30T22:18:50.601Z,13.40
2023-03-30T22:21:20.761Z,13.40
2023-03-30T22:23:47.945Z,13.30
2023-03-30T22:26:15.574Z,13.30
2023-03-30T22:28:43.023Z,13.30
2023-03-30T22:31:13.099Z,13.30
2023-03-30T22:33:40.626Z,13.30
2023-03-30T22:36:16.869Z,13.30
2023-03-30T22:38:44.002Z,13.20
2023-03-30T22:41:11.093Z,13.20
2023-03-30T22:43:38.119Z,13.20
2023-03-30T22:46:06.770Z,13.20
2023-03-30T22:48:35.556Z,13.20
2023-03-30T22:51:08.357Z,13.20
2023-03-30T22:53:35.843Z,13.20
2023-03-30T22:56:02.870Z,13.20
2023-03-30T22:58:29.995Z,13.10
2023-03-30T23:01:06.968Z,13.10
2023-03-30T23:03:34.608Z,13.00
2023-03-30T23:06:01.760Z,13.00
2023-03-30T23:08:30.018Z,12.90
2023-03-30T23:11:04.390Z,12.90
2023-03-30T23:13:32.643Z,12.80
2023-03-30T23:15:59.671Z,12.80
2023-03-30T23:18:27.099Z,12.70
2023-03-30T23:20:55.656Z,12.70
2023-03-30T23:23:22.790Z,12.60
2023-03-30T23:25:51.075Z,12.50
2023-03-30T23:28:18.528Z,12.40
2023-03-30T23:30:45.930Z,12.40
2023-03-30T23:33:13.539Z,12.30
2023-03-30T23:35:47.404Z,12.20
2023-03-30T23:38:14.469Z,12.10
2023-03-30T23:40:41.579Z,12.10
2023-03-30T23:43:08.813Z,12.00
2023-03-30T23:45:35.868Z,12.00
2023-03-30T23:48:02.884Z,12.00
2023-03-30T23:50:29.713Z,11.90
2023-03-30T23:52:57.744Z,11.80
2023-03-30T23:55:24.964Z,11.80
2023-03-30T23:57:51.882Z,11.80
